Aérodrome :
LOGIN :

S'inscrire | Disclaimer

   EN    FR    IT 

 










Légende :    VFR   VFR Marginal   IFR   IFR Intensif   IFR Très Intensif
Visi : 
Plafond : 
>= 8 km
>= 3000ft
5 à 8 km
1000 à 3000 ft
1500m à 5 km
500 à 1000 ft
800 à 1500m
200 à 500 ft
< 800m
< 200 ft
Symboles :   Orages  Brouillard  Fortes neiges  Fortes précipitations  Vent > 20 kt
SIGMETs :   Divers  Orages  Givrage  Turbulence  Onde Orograph.  Cendres Volcan.






- Altitude de l'aérodrome : 1959 ft
- Code IATA : HOQ


EDQM - Hof Plauen

DERNIER METAR :
  • 231220Z 13007KT 100V160 6000 OVC013 15/12 Q1017

METARs EXPIRÉS :
  • 231150Z 13008KT 7000 OVC013 15/12 Q1018
  • 231120Z 12008KT 090V150 7000 OVC012 15/12 Q1018
  • 231050Z 12008KT 7000 OVC013 14/12 Q1018
  • 231020Z 12008KT 100V160 7000 OVC012 14/12 Q1019
  • 230950Z 12005KT 040V170 3100 BR BKN013 OVC016 14/13 Q1019

TAF TAF EDQM
Valide du 23 à 12h jusqu'au 23 à 21h UTC


231100Z 2312/2321 12006KT 7000 OVC015
TEMPO 2312/2315 OVC013
BECMG 2319/2321 4000 BR



MET'MAP, la Météo Aéronautique d'un coup d'oeil ! - Copyright ORBIFLY Décembre 2007 - Disclaimer

ORBIFLY MET'MAP TEAM :

Programmation & Développement : Alexandra Zaïnal
Conception & Développement : Baudouin d'Aumeries
Co-Programmation & Développement : Marc-Olivier Méhu
Soutien technique & logistique : Manuel Goepfert

Contact : metmap@orbifly.com




SOURCES & CREDITS :

   NOAA